sensor_id;sensor_type;location;lat;lon;timestamp;P1;durP1;ratioP1;P2;durP2;ratioP2
71046;SDS011;58703;48.978;8.982;2023-05-29T00:01:37;4.78;;;2.85;;
71046;SDS011;58703;48.978;8.982;2023-05-29T00:04:05;5.93;;;3.67;;
71046;SDS011;58703;48.978;8.982;2023-05-29T00:06:30;4.67;;;2.90;;
71046;SDS011;58703;48.978;8.982;2023-05-29T00:08:57;5.35;;;3.10;;
71046;SDS011;58703;48.978;8.982;2023-05-29T00:11:24;5.50;;;3.40;;
71046;SDS011;58703;48.978;8.982;2023-05-29T00:13:52;6.45;;;3.25;;
71046;SDS011;58703;48.978;8.982;2023-05-29T00:16:17;6.80;;;3.10;;
71046;SDS011;58703;48.978;8.982;2023-05-29T00:18:43;6.20;;;3.17;;
71046;SDS011;58703;48.978;8.982;2023-05-29T00:21:11;7.65;;;3.28;;
71046;SDS011;58703;48.978;8.982;2023-05-29T00:23:40;6.93;;;3.00;;
71046;SDS011;58703;48.978;8.982;2023-05-29T00:26:07;6.40;;;3.17;;
71046;SDS011;58703;48.978;8.982;2023-05-29T00:28:34;4.80;;;3.22;;
71046;SDS011;58703;48.978;8.982;2023-05-29T00:31:02;6.95;;;3.55;;
71046;SDS011;58703;48.978;8.982;2023-05-29T00:33:28;11.93;;;3.55;;
71046;SDS011;58703;48.978;8.982;2023-05-29T00:35:54;5.80;;;3.47;;
71046;SDS011;58703;48.978;8.982;2023-05-29T00:38:20;5.10;;;2.95;;
71046;SDS011;58703;48.978;8.982;2023-05-29T00:40:46;4.47;;;2.77;;
71046;SDS011;58703;48.978;8.982;2023-05-29T00:43:13;6.97;;;3.22;;
71046;SDS011;58703;48.978;8.982;2023-05-29T00:45:39;5.97;;;3.35;;
71046;SDS011;58703;48.978;8.982;2023-05-29T00:48:06;5.80;;;3.03;;
71046;SDS011;58703;48.978;8.982;2023-05-29T00:50:32;7.05;;;3.55;;
71046;SDS011;58703;48.978;8.982;2023-05-29T00:52:59;6.63;;;3.20;;
71046;SDS011;58703;48.978;8.982;2023-05-29T00:55:27;6.57;;;3.13;;
71046;SDS011;58703;48.978;8.982;2023-05-29T00:57:55;4.53;;;3.30;;
71046;SDS011;58703;48.978;8.982;2023-05-29T01:00:21;5.70;;;3.10;;
71046;SDS011;58703;48.978;8.982;2023-05-29T01:02:48;5.07;;;3.15;;
71046;SDS011;58703;48.978;8.982;2023-05-29T01:05:15;7.18;;;3.28;;
71046;SDS011;58703;48.978;8.982;2023-05-29T01:07:41;7.28;;;2.85;;
71046;SDS011;58703;48.978;8.982;2023-05-29T01:10:07;5.47;;;3.20;;
71046;SDS011;58703;48.978;8.982;2023-05-29T01:12:36;7.65;;;3.05;;
71046;SDS011;58703;48.978;8.982;2023-05-29T01:15:17;5.47;;;3.33;;
71046;SDS011;58703;48.978;8.982;2023-05-29T01:29:32;5.03;;;3.25;;
71046;SDS011;58703;48.978;8.982;2023-05-29T01:32:00;6.15;;;4.10;;
71046;SDS011;58703;48.978;8.982;2023-05-29T01:34:28;6.93;;;3.50;;
71046;SDS011;58703;48.978;8.982;2023-05-29T01:36:54;8.37;;;4.10;;
71046;SDS011;58703;48.978;8.982;2023-05-29T01:39:19;7.22;;;3.42;;
71046;SDS011;58703;48.978;8.982;2023-05-29T01:41:47;6.22;;;3.47;;
71046;SDS011;58703;48.978;8.982;2023-05-29T01:44:14;7.70;;;3.97;;
71046;SDS011;58703;48.978;8.982;2023-05-29T01:46:42;6.33;;;3.70;;
71046;SDS011;58703;48.978;8.982;2023-05-29T01:49:08;7.68;;;4.03;;
71046;SDS011;58703;48.978;8.982;2023-05-29T01:51:35;6.60;;;4.07;;
71046;SDS011;58703;48.978;8.982;2023-05-29T01:54:00;6.63;;;3.23;;
71046;SDS011;58703;48.978;8.982;2023-05-29T01:56:28;6.28;;;3.65;;
71046;SDS011;58703;48.978;8.982;2023-05-29T01:58:55;7.78;;;3.30;;
71046;SDS011;58703;48.978;8.982;2023-05-29T02:01:22;5.32;;;3.40;;
71046;SDS011;58703;48.978;8.982;2023-05-29T02:03:48;6.80;;;3.50;;
71046;SDS011;58703;48.978;8.982;2023-05-29T02:06:15;7.05;;;3.97;;
71046;SDS011;58703;48.978;8.982;2023-05-29T02:08:41;5.90;;;3.13;;
71046;SDS011;58703;48.978;8.982;2023-05-29T02:11:07;5.53;;;3.37;;
71046;SDS011;58703;48.978;8.982;2023-05-29T02:13:34;6.65;;;3.70;;
71046;SDS011;58703;48.978;8.982;2023-05-29T02:16:01;5.90;;;3.42;;
71046;SDS011;58703;48.978;8.982;2023-05-29T02:18:28;6.30;;;3.50;;
71046;SDS011;58703;48.978;8.982;2023-05-29T02:20:53;5.50;;;3.63;;
71046;SDS011;58703;48.978;8.982;2023-05-29T02:23:19;6.47;;;3.45;;
71046;SDS011;58703;48.978;8.982;2023-05-29T02:25:46;6.20;;;3.83;;
71046;SDS011;58703;48.978;8.982;2023-05-29T02:28:12;5.55;;;3.33;;
71046;SDS011;58703;48.978;8.982;2023-05-29T02:30:38;7.93;;;4.00;;
71046;SDS011;58703;48.978;8.982;2023-05-29T02:33:05;8.90;;;4.07;;
71046;SDS011;58703;48.978;8.982;2023-05-29T02:35:33;8.10;;;3.70;;
71046;SDS011;58703;48.978;8.982;2023-05-29T02:38:00;7.97;;;3.50;;
71046;SDS011;58703;48.978;8.982;2023-05-29T02:40:26;7.97;;;4.00;;
71046;SDS011;58703;48.978;8.982;2023-05-29T02:42:52;5.40;;;3.97;;
71046;SDS011;58703;48.978;8.982;2023-05-29T02:45:19;4.70;;;2.92;;
71046;SDS011;58703;48.978;8.982;2023-05-29T02:47:45;8.20;;;3.63;;
71046;SDS011;58703;48.978;8.982;2023-05-29T02:50:12;8.88;;;3.22;;
71046;SDS011;58703;48.978;8.982;2023-05-29T02:52:41;6.47;;;4.70;;
71046;SDS011;58703;48.978;8.982;2023-05-29T02:55:06;6.45;;;3.60;;
71046;SDS011;58703;48.978;8.982;2023-05-29T02:57:32;7.78;;;4.25;;
71046;SDS011;58703;48.978;8.982;2023-05-29T02:59:59;6.37;;;3.73;;
71046;SDS011;58703;48.978;8.982;2023-05-29T03:02:26;7.68;;;3.60;;
71046;SDS011;58703;48.978;8.982;2023-05-29T03:04:52;5.83;;;3.37;;
71046;SDS011;58703;48.978;8.982;2023-05-29T03:07:20;6.50;;;3.45;;
71046;SDS011;58703;48.978;8.982;2023-05-29T03:09:47;5.32;;;3.67;;
71046;SDS011;58703;48.978;8.982;2023-05-29T03:12:14;6.07;;;3.05;;
71046;SDS011;58703;48.978;8.982;2023-05-29T03:14:41;7.30;;;3.53;;
71046;SDS011;58703;48.978;8.982;2023-05-29T03:17:06;7.70;;;3.57;;
71046;SDS011;58703;48.978;8.982;2023-05-29T03:19:34;4.75;;;3.20;;
71046;SDS011;58703;48.978;8.982;2023-05-29T03:22:00;6.35;;;3.65;;
71046;SDS011;58703;48.978;8.982;2023-05-29T03:24:27;7.53;;;3.22;;
71046;SDS011;58703;48.978;8.982;2023-05-29T03:26:54;8.30;;;3.47;;
71046;SDS011;58703;48.978;8.982;2023-05-29T03:29:22;6.23;;;3.10;;
71046;SDS011;58703;48.978;8.982;2023-05-29T03:31:48;5.70;;;3.33;;
71046;SDS011;58703;48.978;8.982;2023-05-29T03:34:15;5.50;;;3.17;;
71046;SDS011;58703;48.978;8.982;2023-05-29T03:36:41;7.90;;;3.23;;
71046;SDS011;58703;48.978;8.982;2023-05-29T03:39:07;5.78;;;3.30;;
71046;SDS011;58703;48.978;8.982;2023-05-29T03:41:33;6.00;;;3.78;;
71046;SDS011;58703;48.978;8.982;2023-05-29T03:44:00;6.83;;;3.50;;
71046;SDS011;58703;48.978;8.982;2023-05-29T03:46:27;9.07;;;3.58;;
71046;SDS011;58703;48.978;8.982;2023-05-29T03:48:53;5.50;;;2.83;;
71046;SDS011;58703;48.978;8.982;2023-05-29T03:51:20;4.60;;;3.27;;
71046;SDS011;58703;48.978;8.982;2023-05-29T03:53:46;6.30;;;3.65;;
71046;SDS011;58703;48.978;8.982;2023-05-29T03:56:13;6.05;;;4.00;;
71046;SDS011;58703;48.978;8.982;2023-05-29T03:58:39;6.47;;;3.60;;
71046;SDS011;58703;48.978;8.982;2023-05-29T04:01:06;8.07;;;3.63;;
71046;SDS011;58703;48.978;8.982;2023-05-29T04:03:33;6.00;;;3.33;;
71046;SDS011;58703;48.978;8.982;2023-05-29T04:06:00;7.68;;;3.90;;
71046;SDS011;58703;48.978;8.982;2023-05-29T04:08:27;6.30;;;3.20;;
71046;SDS011;58703;48.978;8.982;2023-05-29T04:10:54;5.45;;;2.72;;
71046;SDS011;58703;48.978;8.982;2023-05-29T04:13:21;6.38;;;3.80;;
71046;SDS011;58703;48.978;8.982;2023-05-29T04:15:48;5.05;;;3.13;;
71046;SDS011;58703;48.978;8.982;2023-05-29T04:18:14;6.65;;;3.50;;
71046;SDS011;58703;48.978;8.982;2023-05-29T04:20:41;6.03;;;3.87;;
71046;SDS011;58703;48.978;8.982;2023-05-29T04:23:07;5.95;;;3.15;;
71046;SDS011;58703;48.978;8.982;2023-05-29T04:25:34;5.68;;;3.40;;
71046;SDS011;58703;48.978;8.982;2023-05-29T04:28:02;7.07;;;3.20;;
71046;SDS011;58703;48.978;8.982;2023-05-29T04:30:30;5.03;;;3.40;;
71046;SDS011;58703;48.978;8.982;2023-05-29T04:32:57;6.32;;;3.35;;
71046;SDS011;58703;48.978;8.982;2023-05-29T04:35:24;5.87;;;3.43;;
71046;SDS011;58703;48.978;8.982;2023-05-29T04:37:51;5.55;;;2.97;;
71046;SDS011;58703;48.978;8.982;2023-05-29T04:40:18;5.93;;;3.65;;
71046;SDS011;58703;48.978;8.982;2023-05-29T04:42:46;6.00;;;2.72;;
71046;SDS011;58703;48.978;8.982;2023-05-29T04:45:13;6.22;;;3.40;;
71046;SDS011;58703;48.978;8.982;2023-05-29T04:47:39;6.50;;;3.50;;
71046;SDS011;58703;48.978;8.982;2023-05-29T04:50:14;5.45;;;3.63;;
71046;SDS011;58703;48.978;8.982;2023-05-29T04:52:40;6.18;;;3.67;;
71046;SDS011;58703;48.978;8.982;2023-05-29T04:55:06;5.40;;;3.07;;
71046;SDS011;58703;48.978;8.982;2023-05-29T04:57:33;4.65;;;2.88;;
71046;SDS011;58703;48.978;8.982;2023-05-29T05:00:01;5.10;;;3.35;;
71046;SDS011;58703;48.978;8.982;2023-05-29T05:02:30;7.18;;;3.40;;
71046;SDS011;58703;48.978;8.982;2023-05-29T05:04:58;5.65;;;3.42;;
71046;SDS011;58703;48.978;8.982;2023-05-29T05:07:25;6.07;;;3.37;;
71046;SDS011;58703;48.978;8.982;2023-05-29T05:09:51;6.85;;;3.40;;
71046;SDS011;58703;48.978;8.982;2023-05-29T05:12:18;4.60;;;3.20;;
71046;SDS011;58703;48.978;8.982;2023-05-29T05:14:44;4.37;;;3.40;;
71046;SDS011;58703;48.978;8.982;2023-05-29T05:17:11;6.78;;;3.58;;
71046;SDS011;58703;48.978;8.982;2023-05-29T05:19:38;8.18;;;3.40;;
71046;SDS011;58703;48.978;8.982;2023-05-29T05:22:04;5.65;;;3.55;;
71046;SDS011;58703;48.978;8.982;2023-05-29T05:24:30;6.00;;;3.97;;
71046;SDS011;58703;48.978;8.982;2023-05-29T05:26:57;7.43;;;4.13;;
71046;SDS011;58703;48.978;8.982;2023-05-29T05:29:24;7.28;;;3.85;;
71046;SDS011;58703;48.978;8.982;2023-05-29T05:31:51;6.07;;;3.53;;
71046;SDS011;58703;48.978;8.982;2023-05-29T05:34:18;7.68;;;3.45;;
71046;SDS011;58703;48.978;8.982;2023-05-29T05:36:43;6.28;;;3.50;;
71046;SDS011;58703;48.978;8.982;2023-05-29T05:39:09;5.60;;;3.30;;
71046;SDS011;58703;48.978;8.982;2023-05-29T05:41:36;5.72;;;3.30;;
71046;SDS011;58703;48.978;8.982;2023-05-29T05:44:02;5.78;;;3.58;;
71046;SDS011;58703;48.978;8.982;2023-05-29T05:46:28;5.50;;;3.27;;
71046;SDS011;58703;48.978;8.982;2023-05-29T05:48:54;5.07;;;3.38;;
71046;SDS011;58703;48.978;8.982;2023-05-29T05:51:23;6.68;;;3.55;;
71046;SDS011;58703;48.978;8.982;2023-05-29T05:53:50;5.03;;;3.23;;
71046;SDS011;58703;48.978;8.982;2023-05-29T05:56:16;3.88;;;2.70;;
71046;SDS011;58703;48.978;8.982;2023-05-29T05:58:41;4.25;;;2.80;;
71046;SDS011;58703;48.978;8.982;2023-05-29T06:01:08;6.10;;;3.20;;
71046;SDS011;58703;48.978;8.982;2023-05-29T06:03:34;4.28;;;3.05;;
71046;SDS011;58703;48.978;8.982;2023-05-29T06:06:03;4.65;;;2.97;;
71046;SDS011;58703;48.978;8.982;2023-05-29T06:08:30;5.25;;;2.78;;
71046;SDS011;58703;48.978;8.982;2023-05-29T06:10:56;5.18;;;2.90;;
71046;SDS011;58703;48.978;8.982;2023-05-29T06:13:21;4.33;;;3.00;;
71046;SDS011;58703;48.978;8.982;2023-05-29T06:15:48;4.63;;;2.70;;
71046;SDS011;58703;48.978;8.982;2023-05-29T06:18:15;4.85;;;2.78;;
71046;SDS011;58703;48.978;8.982;2023-05-29T06:20:42;6.80;;;2.70;;
71046;SDS011;58703;48.978;8.982;2023-05-29T06:23:08;4.30;;;2.80;;
71046;SDS011;58703;48.978;8.982;2023-05-29T06:25:34;7.03;;;3.07;;
71046;SDS011;58703;48.978;8.982;2023-05-29T06:28:00;6.20;;;3.30;;
71046;SDS011;58703;48.978;8.982;2023-05-29T06:30:27;7.13;;;3.30;;
71046;SDS011;58703;48.978;8.982;2023-05-29T06:32:54;6.07;;;3.40;;
71046;SDS011;58703;48.978;8.982;2023-05-29T06:35:21;3.97;;;2.42;;
71046;SDS011;58703;48.978;8.982;2023-05-29T06:37:48;4.35;;;3.20;;
71046;SDS011;58703;48.978;8.982;2023-05-29T06:40:15;4.75;;;2.90;;
71046;SDS011;58703;48.978;8.982;2023-05-29T06:42:41;3.47;;;2.38;;
71046;SDS011;58703;48.978;8.982;2023-05-29T06:45:11;6.93;;;3.10;;
71046;SDS011;58703;48.978;8.982;2023-05-29T06:47:44;6.15;;;3.03;;
71046;SDS011;58703;48.978;8.982;2023-05-29T06:50:11;6.93;;;2.97;;
71046;SDS011;58703;48.978;8.982;2023-05-29T06:52:37;6.63;;;2.75;;
71046;SDS011;58703;48.978;8.982;2023-05-29T06:55:02;4.70;;;2.90;;
71046;SDS011;58703;48.978;8.982;2023-05-29T06:57:30;10.35;;;3.00;;
71046;SDS011;58703;48.978;8.982;2023-05-29T06:59:56;4.90;;;2.60;;
71046;SDS011;58703;48.978;8.982;2023-05-29T07:02:22;4.85;;;2.63;;
71046;SDS011;58703;48.978;8.982;2023-05-29T07:04:49;3.90;;;2.23;;
71046;SDS011;58703;48.978;8.982;2023-05-29T07:07:16;3.60;;;2.40;;
71046;SDS011;58703;48.978;8.982;2023-05-29T07:09:44;4.90;;;2.40;;
71046;SDS011;58703;48.978;8.982;2023-05-29T07:12:10;4.57;;;2.70;;
71046;SDS011;58703;48.978;8.982;2023-05-29T07:14:38;6.90;;;2.50;;
71046;SDS011;58703;48.978;8.982;2023-05-29T07:17:05;3.90;;;3.15;;
71046;SDS011;58703;48.978;8.982;2023-05-29T07:19:32;4.45;;;2.40;;
71046;SDS011;58703;48.978;8.982;2023-05-29T07:22:00;3.17;;;2.30;;
71046;SDS011;58703;48.978;8.982;2023-05-29T07:24:27;4.97;;;2.38;;
71046;SDS011;58703;48.978;8.982;2023-05-29T07:26:54;7.57;;;2.83;;
71046;SDS011;58703;48.978;8.982;2023-05-29T07:29:21;7.03;;;2.40;;
71046;SDS011;58703;48.978;8.982;2023-05-29T07:31:49;5.28;;;2.53;;
71046;SDS011;58703;48.978;8.982;2023-05-29T07:34:16;3.97;;;2.47;;
71046;SDS011;58703;48.978;8.982;2023-05-29T07:37:00;4.23;;;2.60;;
71046;SDS011;58703;48.978;8.982;2023-05-29T07:39:28;5.47;;;2.20;;
71046;SDS011;58703;48.978;8.982;2023-05-29T07:41:55;5.55;;;2.75;;
71046;SDS011;58703;48.978;8.982;2023-05-29T07:44:22;3.70;;;2.45;;
71046;SDS011;58703;48.978;8.982;2023-05-29T07:46:49;2.60;;;2.00;;
71046;SDS011;58703;48.978;8.982;2023-05-29T07:49:15;6.53;;;2.20;;
71046;SDS011;58703;48.978;8.982;2023-05-29T07:51:41;6.28;;;2.78;;
71046;SDS011;58703;48.978;8.982;2023-05-29T07:54:07;4.20;;;2.20;;
71046;SDS011;58703;48.978;8.982;2023-05-29T07:56:34;8.63;;;2.70;;
71046;SDS011;58703;48.978;8.982;2023-05-29T07:59:01;4.95;;;2.60;;
71046;SDS011;58703;48.978;8.982;2023-05-29T08:01:26;4.57;;;2.17;;
71046;SDS011;58703;48.978;8.982;2023-05-29T08:03:52;4.27;;;2.70;;
71046;SDS011;58703;48.978;8.982;2023-05-29T08:06:19;6.78;;;2.88;;
71046;SDS011;58703;48.978;8.982;2023-05-29T08:08:46;4.82;;;2.78;;
71046;SDS011;58703;48.978;8.982;2023-05-29T08:11:13;6.33;;;3.00;;
71046;SDS011;58703;48.978;8.982;2023-05-29T08:13:39;4.03;;;2.63;;
71046;SDS011;58703;48.978;8.982;2023-05-29T08:16:06;3.72;;;2.63;;
71046;SDS011;58703;48.978;8.982;2023-05-29T08:18:32;6.38;;;3.05;;
71046;SDS011;58703;48.978;8.982;2023-05-29T08:20:58;3.73;;;2.37;;
71046;SDS011;58703;48.978;8.982;2023-05-29T08:23:25;5.40;;;2.85;;
71046;SDS011;58703;48.978;8.982;2023-05-29T08:25:53;4.57;;;2.90;;
71046;SDS011;58703;48.978;8.982;2023-05-29T08:28:20;5.13;;;2.50;;
71046;SDS011;58703;48.978;8.982;2023-05-29T08:30:48;4.30;;;2.75;;
71046;SDS011;58703;48.978;8.982;2023-05-29T08:33:14;3.77;;;2.20;;
71046;SDS011;58703;48.978;8.982;2023-05-29T08:35:40;4.40;;;2.75;;
71046;SDS011;58703;48.978;8.982;2023-05-29T08:38:06;4.38;;;2.80;;
71046;SDS011;58703;48.978;8.982;2023-05-29T08:40:33;6.47;;;2.90;;
71046;SDS011;58703;48.978;8.982;2023-05-29T08:43:41;5.75;;;2.67;;
71046;SDS011;58703;48.978;8.982;2023-05-29T08:46:10;5.78;;;2.65;;
71046;SDS011;58703;48.978;8.982;2023-05-29T08:48:36;4.80;;;2.83;;
71046;SDS011;58703;48.978;8.982;2023-05-29T08:51:05;4.72;;;2.78;;
71046;SDS011;58703;48.978;8.982;2023-05-29T08:53:34;3.80;;;2.90;;
71046;SDS011;58703;48.978;8.982;2023-05-29T08:56:02;6.45;;;2.95;;
71046;SDS011;58703;48.978;8.982;2023-05-29T08:58:29;4.57;;;2.35;;
71046;SDS011;58703;48.978;8.982;2023-05-29T09:00:56;4.35;;;2.70;;
71046;SDS011;58703;48.978;8.982;2023-05-29T09:03:22;5.53;;;2.90;;
71046;SDS011;58703;48.978;8.982;2023-05-29T09:05:49;4.13;;;2.70;;
71046;SDS011;58703;48.978;8.982;2023-05-29T09:08:16;4.47;;;2.53;;
71046;SDS011;58703;48.978;8.982;2023-05-29T09:10:44;5.82;;;2.78;;
71046;SDS011;58703;48.978;8.982;2023-05-29T09:13:12;4.93;;;2.70;;
71046;SDS011;58703;48.978;8.982;2023-05-29T09:15:39;5.35;;;3.00;;
71046;SDS011;58703;48.978;8.982;2023-05-29T09:18:10;3.55;;;2.53;;
71046;SDS011;58703;48.978;8.982;2023-05-29T09:20:35;5.72;;;2.78;;
71046;SDS011;58703;48.978;8.982;2023-05-29T09:23:02;5.43;;;3.00;;
71046;SDS011;58703;48.978;8.982;2023-05-29T09:25:31;6.78;;;2.58;;
71046;SDS011;58703;48.978;8.982;2023-05-29T09:27:58;4.20;;;2.90;;
71046;SDS011;58703;48.978;8.982;2023-05-29T09:30:42;3.60;;;2.70;;
71046;SDS011;58703;48.978;8.982;2023-05-29T09:33:11;4.20;;;2.90;;
71046;SDS011;58703;48.978;8.982;2023-05-29T09:35:43;5.53;;;2.60;;
71046;SDS011;58703;48.978;8.982;2023-05-29T09:38:15;4.63;;;2.90;;
71046;SDS011;58703;48.978;8.982;2023-05-29T09:40:42;8.48;;;2.90;;
71046;SDS011;58703;48.978;8.982;2023-05-29T09:45:45;5.93;;;2.67;;
71046;SDS011;58703;48.978;8.982;2023-05-29T09:48:15;7.90;;;2.80;;
71046;SDS011;58703;48.978;8.982;2023-05-29T09:50:48;4.43;;;3.05;;
71046;SDS011;58703;48.978;8.982;2023-05-29T09:53:16;6.18;;;2.95;;
71046;SDS011;58703;48.978;8.982;2023-05-29T09:55:47;4.25;;;2.78;;
71046;SDS011;58703;48.978;8.982;2023-05-29T09:58:16;5.53;;;3.03;;
71046;SDS011;58703;48.978;8.982;2023-05-29T10:00:44;5.57;;;2.50;;
71046;SDS011;58703;48.978;8.982;2023-05-29T10:03:11;5.28;;;2.75;;
71046;SDS011;58703;48.978;8.982;2023-05-29T10:05:41;4.50;;;2.88;;
71046;SDS011;58703;48.978;8.982;2023-05-29T10:08:09;5.38;;;2.70;;
71046;SDS011;58703;48.978;8.982;2023-05-29T10:10:38;3.75;;;2.72;;
71046;SDS011;58703;48.978;8.982;2023-05-29T10:13:06;7.63;;;3.07;;
71046;SDS011;58703;48.978;8.982;2023-05-29T10:15:39;5.97;;;3.38;;
71046;SDS011;58703;48.978;8.982;2023-05-29T10:20:57;3.60;;;2.30;;
71046;SDS011;58703;48.978;8.982;2023-05-29T10:23:26;4.80;;;2.15;;
71046;SDS011;58703;48.978;8.982;2023-05-29T10:26:10;6.37;;;2.87;;
71046;SDS011;58703;48.978;8.982;2023-05-29T10:28:41;4.07;;;2.47;;
71046;SDS011;58703;48.978;8.982;2023-05-29T10:31:21;6.10;;;3.00;;
71046;SDS011;58703;48.978;8.982;2023-05-29T10:36:49;4.90;;;2.65;;
71046;SDS011;58703;48.978;8.982;2023-05-29T10:39:23;2.87;;;1.90;;
71046;SDS011;58703;48.978;8.982;2023-05-29T10:41:49;4.05;;;2.30;;
71046;SDS011;58703;48.978;8.982;2023-05-29T10:47:13;4.43;;;2.60;;
71046;SDS011;58703;48.978;8.982;2023-05-29T10:49:48;10.30;;;2.00;;
71046;SDS011;58703;48.978;8.982;2023-05-29T10:52:18;4.00;;;2.40;;
71046;SDS011;58703;48.978;8.982;2023-05-29T10:54:52;5.78;;;3.42;;
71046;SDS011;58703;48.978;8.982;2023-05-29T10:57:21;3.75;;;2.40;;
71046;SDS011;58703;48.978;8.982;2023-05-29T10:59:58;5.03;;;2.38;;
71046;SDS011;58703;48.978;8.982;2023-05-29T11:02:32;5.57;;;2.60;;
71046;SDS011;58703;48.978;8.982;2023-05-29T11:07:56;4.63;;;2.10;;
71046;SDS011;58703;48.978;8.982;2023-05-29T11:13:25;5.25;;;2.42;;
71046;SDS011;58703;48.978;8.982;2023-05-29T11:16:09;7.32;;;2.60;;
71046;SDS011;58703;48.978;8.982;2023-05-29T11:18:42;4.70;;;2.33;;
71046;SDS011;58703;48.978;8.982;2023-05-29T11:23:57;3.10;;;1.95;;
71046;SDS011;58703;48.978;8.982;2023-05-29T11:26:26;4.05;;;2.42;;
71046;SDS011;58703;48.978;8.982;2023-05-29T11:28:56;5.93;;;2.47;;
71046;SDS011;58703;48.978;8.982;2023-05-29T11:31:23;3.47;;;1.53;;
71046;SDS011;58703;48.978;8.982;2023-05-29T11:33:51;2.95;;;2.00;;
71046;SDS011;58703;48.978;8.982;2023-05-29T11:36:21;4.07;;;2.05;;
71046;SDS011;58703;48.978;8.982;2023-05-29T11:38:47;2.72;;;1.63;;
71046;SDS011;58703;48.978;8.982;2023-05-29T11:41:14;4.80;;;2.77;;
71046;SDS011;58703;48.978;8.982;2023-05-29T11:43:43;2.55;;;1.38;;
71046;SDS011;58703;48.978;8.982;2023-05-29T11:46:18;5.13;;;2.50;;
71046;SDS011;58703;48.978;8.982;2023-05-29T11:48:47;5.80;;;2.58;;
71046;SDS011;58703;48.978;8.982;2023-05-29T11:51:14;5.97;;;2.53;;
71046;SDS011;58703;48.978;8.982;2023-05-29T11:53:41;7.43;;;2.17;;
71046;SDS011;58703;48.978;8.982;2023-05-29T11:56:11;5.57;;;2.67;;
71046;SDS011;58703;48.978;8.982;2023-05-29T11:58:38;3.75;;;2.03;;
71046;SDS011;58703;48.978;8.982;2023-05-29T12:01:06;3.70;;;2.05;;
71046;SDS011;58703;48.978;8.982;2023-05-29T12:03:41;2.22;;;2.00;;
71046;SDS011;58703;48.978;8.982;2023-05-29T12:06:08;4.37;;;2.20;;
71046;SDS011;58703;48.978;8.982;2023-05-29T12:08:35;2.63;;;2.10;;
71046;SDS011;58703;48.978;8.982;2023-05-29T12:11:03;4.47;;;2.40;;
71046;SDS011;58703;48.978;8.982;2023-05-29T12:13:29;3.33;;;2.03;;
71046;SDS011;58703;48.978;8.982;2023-05-29T12:15:56;3.90;;;2.30;;
71046;SDS011;58703;48.978;8.982;2023-05-29T12:18:29;3.10;;;1.50;;
71046;SDS011;58703;48.978;8.982;2023-05-29T12:21:00;4.95;;;2.00;;
71046;SDS011;58703;48.978;8.982;2023-05-29T12:23:30;3.28;;;2.00;;
71046;SDS011;58703;48.978;8.982;2023-05-29T12:25:56;4.90;;;1.93;;
71046;SDS011;58703;48.978;8.982;2023-05-29T12:28:25;3.38;;;1.83;;
71046;SDS011;58703;48.978;8.982;2023-05-29T12:30:57;5.72;;;2.38;;
71046;SDS011;58703;48.978;8.982;2023-05-29T12:33:31;3.10;;;2.40;;
71046;SDS011;58703;48.978;8.982;2023-05-29T12:36:07;3.13;;;2.17;;
71046;SDS011;58703;48.978;8.982;2023-05-29T12:38:50;3.30;;;1.90;;
71046;SDS011;58703;48.978;8.982;2023-05-29T12:41:23;3.80;;;2.00;;
71046;SDS011;58703;48.978;8.982;2023-05-29T12:43:54;4.30;;;2.42;;
71046;SDS011;58703;48.978;8.982;2023-05-29T12:46:23;3.95;;;2.15;;
71046;SDS011;58703;48.978;8.982;2023-05-29T12:48:49;6.85;;;2.85;;
71046;SDS011;58703;48.978;8.982;2023-05-29T12:51:17;5.57;;;2.17;;
71046;SDS011;58703;48.978;8.982;2023-05-29T12:53:47;6.63;;;2.58;;
71046;SDS011;58703;48.978;8.982;2023-05-29T12:56:12;3.10;;;1.90;;
71046;SDS011;58703;48.978;8.982;2023-05-29T12:58:39;2.93;;;2.10;;
71046;SDS011;58703;48.978;8.982;2023-05-29T13:01:11;3.47;;;2.00;;
71046;SDS011;58703;48.978;8.982;2023-05-29T13:03:39;4.15;;;2.03;;
71046;SDS011;58703;48.978;8.982;2023-05-29T13:06:06;4.87;;;2.27;;
71046;SDS011;58703;48.978;8.982;2023-05-29T13:08:33;2.80;;;2.30;;
71046;SDS011;58703;48.978;8.982;2023-05-29T13:11:00;5.85;;;2.42;;
71046;SDS011;58703;48.978;8.982;2023-05-29T13:13:27;3.28;;;1.65;;
71046;SDS011;58703;48.978;8.982;2023-05-29T13:15:54;3.08;;;2.10;;
71046;SDS011;58703;48.978;8.982;2023-05-29T13:18:21;4.07;;;2.58;;
71046;SDS011;58703;48.978;8.982;2023-05-29T13:20:47;2.37;;;2.17;;
71046;SDS011;58703;48.978;8.982;2023-05-29T13:23:14;3.97;;;2.58;;
71046;SDS011;58703;48.978;8.982;2023-05-29T13:25:41;2.35;;;2.00;;
71046;SDS011;58703;48.978;8.982;2023-05-29T13:28:08;2.78;;;2.15;;
71046;SDS011;58703;48.978;8.982;2023-05-29T13:30:35;3.38;;;2.45;;
71046;SDS011;58703;48.978;8.982;2023-05-29T13:33:02;3.17;;;2.33;;
71046;SDS011;58703;48.978;8.982;2023-05-29T13:35:28;3.38;;;2.33;;
71046;SDS011;58703;48.978;8.982;2023-05-29T13:37:55;2.70;;;2.40;;
71046;SDS011;58703;48.978;8.982;2023-05-29T13:40:21;3.50;;;1.98;;
71046;SDS011;58703;48.978;8.982;2023-05-29T13:42:49;4.75;;;2.60;;
71046;SDS011;58703;48.978;8.982;2023-05-29T13:45:16;4.03;;;2.33;;
71046;SDS011;58703;48.978;8.982;2023-05-29T13:47:43;4.15;;;2.30;;
71046;SDS011;58703;48.978;8.982;2023-05-29T13:50:09;2.85;;;2.40;;
71046;SDS011;58703;48.978;8.982;2023-05-29T13:52:36;2.22;;;1.90;;
71046;SDS011;58703;48.978;8.982;2023-05-29T13:55:03;3.77;;;2.43;;
71046;SDS011;58703;48.978;8.982;2023-05-29T13:57:43;1.85;;;1.38;;
71046;SDS011;58703;48.978;8.982;2023-05-29T14:00:11;2.38;;;1.77;;
71046;SDS011;58703;48.978;8.982;2023-05-29T14:02:37;2.75;;;2.55;;
71046;SDS011;58703;48.978;8.982;2023-05-29T14:05:03;2.57;;;1.97;;
71046;SDS011;58703;48.978;8.982;2023-05-29T14:07:32;4.97;;;2.40;;
71046;SDS011;58703;48.978;8.982;2023-05-29T14:09:59;2.95;;;2.45;;
71046;SDS011;58703;48.978;8.982;2023-05-29T14:12:26;2.28;;;1.98;;
71046;SDS011;58703;48.978;8.982;2023-05-29T14:14:52;2.60;;;2.10;;
71046;SDS011;58703;48.978;8.982;2023-05-29T14:17:20;2.90;;;2.20;;
71046;SDS011;58703;48.978;8.982;2023-05-29T14:19:47;3.47;;;3.13;;
71046;SDS011;58703;48.978;8.982;2023-05-29T14:22:14;3.80;;;2.40;;
71046;SDS011;58703;48.978;8.982;2023-05-29T14:24:41;4.93;;;2.50;;
71046;SDS011;58703;48.978;8.982;2023-05-29T14:27:08;2.83;;;2.45;;
71046;SDS011;58703;48.978;8.982;2023-05-29T14:29:35;4.10;;;2.70;;
71046;SDS011;58703;48.978;8.982;2023-05-29T14:32:02;2.45;;;1.98;;
71046;SDS011;58703;48.978;8.982;2023-05-29T14:34:27;3.22;;;2.22;;
71046;SDS011;58703;48.978;8.982;2023-05-29T14:36:55;3.20;;;2.50;;
71046;SDS011;58703;48.978;8.982;2023-05-29T14:39:22;3.28;;;2.53;;
71046;SDS011;58703;48.978;8.982;2023-05-29T14:41:49;4.00;;;2.50;;
71046;SDS011;58703;48.978;8.982;2023-05-29T14:44:16;2.85;;;2.42;;
71046;SDS011;58703;48.978;8.982;2023-05-29T14:46:41;2.65;;;2.30;;
71046;SDS011;58703;48.978;8.982;2023-05-29T14:49:08;2.97;;;2.37;;
71046;SDS011;58703;48.978;8.982;2023-05-29T14:51:35;3.05;;;2.20;;
71046;SDS011;58703;48.978;8.982;2023-05-29T14:54:03;3.22;;;2.10;;
71046;SDS011;58703;48.978;8.982;2023-05-29T14:56:30;2.92;;;2.20;;
71046;SDS011;58703;48.978;8.982;2023-05-29T14:58:56;3.03;;;2.72;;
71046;SDS011;58703;48.978;8.982;2023-05-29T15:01:23;2.93;;;1.90;;
71046;SDS011;58703;48.978;8.982;2023-05-29T15:03:50;5.13;;;2.20;;
71046;SDS011;58703;48.978;8.982;2023-05-29T15:06:17;2.58;;;1.70;;
71046;SDS011;58703;48.978;8.982;2023-05-29T15:08:43;3.22;;;1.85;;
71046;SDS011;58703;48.978;8.982;2023-05-29T15:11:11;4.20;;;1.92;;
71046;SDS011;58703;48.978;8.982;2023-05-29T15:13:39;2.33;;;2.00;;
71046;SDS011;58703;48.978;8.982;2023-05-29T15:16:06;2.63;;;2.00;;
71046;SDS011;58703;48.978;8.982;2023-05-29T15:18:34;4.63;;;2.20;;
71046;SDS011;58703;48.978;8.982;2023-05-29T15:21:01;3.63;;;2.40;;
71046;SDS011;58703;48.978;8.982;2023-05-29T15:23:29;5.57;;;2.55;;